createdAt,value
2023-05-20T00:00:00.255Z,13.67
2023-05-20T00:02:27.445Z,13.59
2023-05-20T00:04:54.293Z,13.64
2023-05-20T00:07:24.171Z,13.75
2023-05-20T00:09:53.036Z,13.75
2023-05-20T00:12:23.276Z,13.79
2023-05-20T00:14:53.954Z,13.80
2023-05-20T00:17:24.043Z,13.79
2023-05-20T00:19:50.722Z,13.70
2023-05-20T00:22:17.310Z,13.64
2023-05-20T00:24:44.179Z,13.79
2023-05-20T00:27:12.011Z,13.79
2023-05-20T00:29:39.021Z,13.78
2023-05-20T00:32:06.146Z,13.77
2023-05-20T00:34:32.877Z,13.75
2023-05-20T00:37:01.770Z,13.75
2023-05-20T00:39:31.167Z,13.73
2023-05-20T00:42:01.826Z,13.55
2023-05-20T00:44:28.438Z,13.68
2023-05-20T00:46:56.945Z,13.52
2023-05-20T00:49:24.111Z,13.55
2023-05-20T00:51:53.853Z,13.49
2023-05-20T00:54:22.382Z,13.52
2023-05-20T00:56:49.757Z,13.47
2023-05-20T00:59:18.952Z,13.40
2023-05-20T01:01:46.244Z,13.39
2023-05-20T01:04:14.504Z,13.36
2023-05-20T01:06:41.715Z,13.32
2023-05-20T01:09:08.598Z,13.22
2023-05-20T01:11:53.431Z,13.15
2023-05-20T01:14:22.663Z,13.19
2023-05-20T01:16:52.367Z,13.12
2023-05-20T01:19:34.275Z,13.12
2023-05-20T01:22:06.756Z,13.09
2023-05-20T01:24:33.846Z,13.06
2023-05-20T01:27:00.620Z,12.94
2023-05-20T01:29:28.353Z,13.04
2023-05-20T01:31:57.246Z,12.96
2023-05-20T01:34:26.092Z,12.75
2023-05-20T01:36:54.693Z,12.92
2023-05-20T01:39:21.783Z,12.75
2023-05-20T01:41:52.293Z,12.70
2023-05-20T01:44:37.601Z,12.83
2023-05-20T01:47:05.492Z,12.78
2023-05-20T01:49:33.612Z,12.68
2023-05-20T01:52:00.486Z,12.70
2023-05-20T01:54:27.238Z,12.70
2023-05-20T01:56:54.257Z,12.77
2023-05-20T01:59:21.110Z,12.69
2023-05-20T02:01:51.138Z,12.76
2023-05-20T02:04:30.449Z,12.77
2023-05-20T02:06:57.353Z,12.73
2023-05-20T02:09:24.573Z,12.84
2023-05-20T02:11:53.570Z,12.73
2023-05-20T02:14:20.402Z,12.82
2023-05-20T02:16:48.075Z,12.81
2023-05-20T02:19:19.963Z,12.80
2023-05-20T02:21:50.279Z,12.71
2023-05-20T02:24:21.859Z,12.61
2023-05-20T02:26:51.520Z,12.77
2023-05-20T02:29:18.250Z,12.79
2023-05-20T02:31:45.074Z,12.80
2023-05-20T02:34:15.981Z,12.78
2023-05-20T02:36:45.291Z,12.81
2023-05-20T02:41:53.298Z,12.84
2023-05-20T02:44:20.015Z,12.93
2023-05-20T02:46:48.134Z,12.90
2023-05-20T02:49:20.346Z,12.94
2023-05-20T02:51:47.123Z,12.99
2023-05-20T02:54:17.283Z,13.00
2023-05-20T02:56:43.954Z,13.02
2023-05-20T02:59:11.777Z,13.03
2023-05-20T03:01:41.145Z,13.13
2023-05-20T03:04:11.884Z,13.00
2023-05-20T03:06:38.646Z,13.10
2023-05-20T03:09:06.458Z,13.12
2023-05-20T03:11:35.268Z,13.26
2023-05-20T03:14:02.799Z,13.08
2023-05-20T03:16:30.134Z,13.32
2023-05-20T03:18:59.205Z,13.24
2023-05-20T03:21:27.040Z,13.34
2023-05-20T03:23:56.264Z,13.18
2023-05-20T03:26:25.940Z,13.32
2023-05-20T03:28:54.195Z,13.13
2023-05-20T03:31:21.233Z,13.17
2023-05-20T03:33:50.128Z,13.24
2023-05-20T03:36:18.059Z,13.20
2023-05-20T03:38:45.433Z,13.16
2023-05-20T03:41:12.134Z,13.17
2023-05-20T03:43:38.778Z,13.16
2023-05-20T03:46:07.448Z,13.08
2023-05-20T03:48:35.348Z,13.12
2023-05-20T03:51:02.087Z,12.94
2023-05-20T03:53:28.957Z,12.98
2023-05-20T03:55:56.523Z,13.06
2023-05-20T03:58:23.690Z,13.10
2023-05-20T04:00:51.239Z,13.06
2023-05-20T04:03:20.067Z,13.08
2023-05-20T04:05:47.661Z,13.15
2023-05-20T04:08:14.693Z,13.13
2023-05-20T04:10:43.102Z,13.03
2023-05-20T04:13:12.438Z,13.10
2023-05-20T04:15:40.148Z,13.13
2023-05-20T04:18:07.072Z,13.14
2023-05-20T04:20:36.563Z,13.26
2023-05-20T04:23:05.579Z,13.22
2023-05-20T04:25:33.426Z,13.10
2023-05-20T04:28:02.169Z,13.23
2023-05-20T04:30:30.724Z,13.28
2023-05-20T04:32:57.646Z,13.37
2023-05-20T04:35:29.787Z,13.38
2023-05-20T04:38:05.663Z,13.41
2023-05-20T04:40:33.753Z,13.30
2023-05-20T04:46:05.618Z,13.42
2023-05-20T04:48:35.485Z,13.63
2023-05-20T04:51:10.705Z,13.68
2023-05-20T04:53:37.687Z,13.78
2023-05-20T04:56:06.224Z,13.76
2023-05-20T04:58:36.937Z,13.78
2023-05-20T05:01:10.449Z,13.59
2023-05-20T05:03:37.237Z,13.81
2023-05-20T05:06:07.089Z,13.84
2023-05-20T05:08:44.796Z,13.93
2023-05-20T05:13:54.207Z,14.09
2023-05-20T05:16:23.144Z,14.08
2023-05-20T05:18:49.897Z,14.35
2023-05-20T05:21:16.897Z,14.41
2023-05-20T05:23:44.129Z,14.43
2023-05-20T05:26:11.941Z,14.51
2023-05-20T05:31:24.345Z,14.83
2023-05-20T05:33:52.221Z,14.91
2023-05-20T05:36:22.107Z,15.04
2023-05-20T05:38:53.946Z,14.92
2023-05-20T05:41:21.789Z,14.99
2023-05-20T05:43:49.505Z,14.96
2023-05-20T05:46:16.706Z,14.90
2023-05-20T05:48:46.154Z,14.87
2023-05-20T05:51:13.552Z,14.93
2023-05-20T05:53:45.357Z,14.87
2023-05-20T05:56:15.861Z,15.08
2023-05-20T05:58:43.379Z,15.19
2023-05-20T06:03:56.576Z,15.26
2023-05-20T06:06:24.125Z,15.28
2023-05-20T06:08:51.043Z,15.09
2023-05-20T06:11:18.202Z,15.29
2023-05-20T06:13:47.575Z,15.38
2023-05-20T06:16:24.350Z,15.56
2023-05-20T06:18:54.622Z,15.70
2023-05-20T06:21:24.635Z,15.57
2023-05-20T06:23:51.577Z,15.74
2023-05-20T06:26:20.582Z,15.68
2023-05-20T06:28:52.308Z,15.53
2023-05-20T06:31:20.158Z,15.40
2023-05-20T06:33:47.921Z,15.40
2023-05-20T06:36:19.318Z,15.28
2023-05-20T06:38:46.119Z,15.36
2023-05-20T06:41:13.943Z,15.40
2023-05-20T06:43:48.299Z,15.37
2023-05-20T06:46:17.535Z,15.42
2023-05-20T06:48:46.149Z,15.44
2023-05-20T06:51:14.598Z,15.53
2023-05-20T06:53:41.632Z,15.58
2023-05-20T06:58:53.625Z,15.53
2023-05-20T07:01:22.308Z,15.82
2023-05-20T07:03:49.380Z,15.90
2023-05-20T07:06:22.277Z,15.99
2023-05-20T07:08:53.386Z,16.01
2023-05-20T07:11:21.456Z,16.24
2023-05-20T07:13:54.157Z,16.20
2023-05-20T07:16:28.801Z,16.24
2023-05-20T07:21:39.660Z,16.18
2023-05-20T07:24:09.530Z,15.74
2023-05-20T07:29:22.886Z,16.20
2023-05-20T07:32:08.807Z,16.39
2023-05-20T07:34:37.545Z,16.59
2023-05-20T07:37:08.610Z,16.65
2023-05-20T07:42:53.404Z,17.05
2023-05-20T07:45:20.412Z,17.17
2023-05-20T07:47:48.633Z,17.24
2023-05-20T07:53:04.446Z,17.05
2023-05-20T07:55:34.692Z,17.03
2023-05-20T08:00:48.022Z,17.22
2023-05-20T08:03:20.200Z,17.16
2023-05-20T08:05:46.913Z,17.23
2023-05-20T08:08:16.676Z,17.33
2023-05-20T08:13:28.725Z,18.14
2023-05-20T08:18:39.779Z,18.57
2023-05-20T08:21:10.292Z,18.63
2023-05-20T08:26:19.595Z,18.67
2023-05-20T08:34:15.016Z,18.71
2023-05-20T08:36:44.965Z,18.71
2023-05-20T08:39:21.556Z,18.79
2023-05-20T08:41:54.477Z,19.03
2023-05-20T08:44:29.903Z,19.21
2023-05-20T08:46:59.248Z,19.41
2023-05-20T08:49:35.892Z,19.59
2023-05-20T08:52:04.675Z,19.36
2023-05-20T08:54:58.599Z,19.09
2023-05-20T08:57:29.331Z,18.79
2023-05-20T09:02:46.768Z,18.95
2023-05-20T09:05:14.765Z,18.94
2023-05-20T09:10:37.533Z,19.15
2023-05-20T09:13:15.783Z,19.52
2023-05-20T09:15:50.030Z,19.65
2023-05-20T09:18:23.600Z,19.75
2023-05-20T09:21:29.614Z,19.58
2023-05-20T09:24:11.424Z,19.55
2023-05-20T09:26:43.087Z,19.23
2023-05-20T09:29:23.898Z,19.24
2023-05-20T09:32:17.384Z,19.14
2023-05-20T09:35:04.468Z,19.36
2023-05-20T09:40:21.712Z,19.31
2023-05-20T09:43:14.873Z,19.32
2023-05-20T09:45:45.229Z,19.40
2023-05-20T09:51:16.065Z,19.20
2023-05-20T09:53:52.569Z,19.16
2023-05-20T09:56:33.868Z,19.34
2023-05-20T09:59:09.008Z,19.60
2023-05-20T10:01:38.062Z,19.68
2023-05-20T10:04:08.734Z,19.58
2023-05-20T10:07:15.625Z,19.47
2023-05-20T10:10:20.184Z,19.60
2023-05-20T10:13:20.524Z,19.57
2023-05-20T10:16:28.850Z,19.71
2023-05-20T10:21:45.310Z,19.82
2023-05-20T10:24:14.714Z,19.73
2023-05-20T10:26:43.130Z,19.60
2023-05-20T10:29:20.202Z,19.63
2023-05-20T10:32:10.050Z,20.10
2023-05-20T10:37:50.233Z,20.10
2023-05-20T10:40:23.057Z,20.16
2023-05-20T10:42:53.069Z,20.19
2023-05-20T10:45:39.952Z,20.39
2023-05-20T10:48:07.322Z,20.33
2023-05-20T10:50:37.658Z,20.36
2023-05-20T10:53:34.577Z,20.12
2023-05-20T10:56:03.062Z,20.16
2023-05-20T10:58:41.206Z,19.90
2023-05-20T11:01:08.238Z,19.99
2023-05-20T11:03:45.821Z,20.15
2023-05-20T11:09:31.493Z,20.28
2023-05-20T11:11:58.839Z,20.19
2023-05-20T11:14:28.892Z,20.22
2023-05-20T11:19:43.183Z,20.46
2023-05-20T11:25:07.332Z,20.14
2023-05-20T11:30:28.298Z,20.57
2023-05-20T11:33:14.581Z,20.61
2023-05-20T11:35:57.789Z,20.37
2023-05-20T11:38:24.857Z,20.20
2023-05-20T11:41:00.157Z,20.16
2023-05-20T11:46:10.793Z,20.29
2023-05-20T11:54:20.566Z,20.63
2023-05-20T11:56:47.292Z,20.73
2023-05-20T11:59:15.522Z,20.99
2023-05-20T12:01:44.639Z,21.24
2023-05-20T12:04:21.024Z,21.24
2023-05-20T12:06:57.876Z,21.24
2023-05-20T12:09:27.264Z,21.50
2023-05-20T12:12:00.629Z,21.54
2023-05-20T12:14:43.241Z,21.40
2023-05-20T12:17:20.447Z,21.50
2023-05-20T12:19:48.841Z,21.47
2023-05-20T12:22:30.027Z,21.29
2023-05-20T12:27:40.816Z,20.93
2023-05-20T12:30:24.583Z,20.91
2023-05-20T12:35:44.202Z,20.71
2023-05-20T12:38:13.387Z,20.65
2023-05-20T12:40:43.040Z,20.67
2023-05-20T12:45:56.082Z,20.76
2023-05-20T12:48:29.889Z,20.65
2023-05-20T12:50:57.108Z,20.65
2023-05-20T12:53:29.680Z,20.71
2023-05-20T12:55:59.821Z,20.84
2023-05-20T12:58:33.961Z,20.93
2023-05-20T13:01:12.566Z,20.88
2023-05-20T13:09:20.455Z,20.85
2023-05-20T13:11:56.997Z,20.97
2023-05-20T13:20:01.456Z,20.77
2023-05-20T13:22:38.685Z,20.84
2023-05-20T13:25:09.748Z,20.80
2023-05-20T13:30:25.549Z,20.64
2023-05-20T13:32:52.645Z,20.71
2023-05-20T13:35:23.400Z,20.73
2023-05-20T13:38:09.982Z,20.78
2023-05-20T13:43:29.322Z,20.72
2023-05-20T13:53:24.371Z,20.92
2023-05-20T14:04:09.652Z,20.99
2023-05-20T14:06:49.110Z,20.99
2023-05-20T14:12:00.304Z,21.07
2023-05-20T14:19:51.115Z,21.06
2023-05-20T14:30:53.268Z,20.99
2023-05-20T14:41:55.901Z,21.07
2023-05-20T14:44:44.019Z,21.13
2023-05-20T15:04:55.704Z,21.76
2023-05-20T15:07:29.802Z,21.56
2023-05-20T15:19:13.228Z,21.59
2023-05-20T15:21:45.257Z,21.53
2023-05-20T15:27:12.407Z,21.16
2023-05-20T15:39:22.049Z,21.41
2023-05-20T15:41:54.647Z,21.24
2023-05-20T16:09:52.255Z,21.01
2023-05-20T16:12:31.258Z,20.94
2023-05-20T16:21:40.580Z,20.80
2023-05-20T16:24:15.011Z,20.85
2023-05-20T16:26:42.009Z,20.80
2023-05-20T16:29:18.785Z,20.76
2023-05-20T16:40:08.533Z,20.81
2023-05-20T16:48:13.041Z,20.78
2023-05-20T16:50:40.153Z,20.54
2023-05-20T16:53:07.524Z,20.35
2023-05-20T16:58:16.111Z,20.41
2023-05-20T17:00:46.457Z,20.30
2023-05-20T17:03:25.167Z,20.18
2023-05-20T17:06:16.202Z,20.04
2023-05-20T17:08:51.330Z,20.10
2023-05-20T17:11:20.020Z,20.10
2023-05-20T17:13:47.067Z,20.06
2023-05-20T17:24:28.899Z,19.77
2023-05-20T17:32:58.334Z,19.48
2023-05-20T17:35:26.471Z,19.46
2023-05-20T17:37:55.785Z,19.38
2023-05-20T17:43:19.002Z,19.20
2023-05-20T17:48:29.329Z,19.05
2023-05-20T17:53:45.884Z,19.04
2023-05-20T18:01:49.299Z,18.85
2023-05-20T18:04:17.891Z,18.88
2023-05-20T18:06:46.780Z,18.84
2023-05-20T18:14:37.807Z,18.72
2023-05-20T18:19:49.893Z,18.52
2023-05-20T18:22:17.234Z,18.61
2023-05-20T18:30:47.330Z,18.51
2023-05-20T18:39:24.445Z,18.31
2023-05-20T18:41:54.197Z,18.33
2023-05-20T18:44:24.406Z,18.33
2023-05-20T18:49:43.717Z,18.08
2023-05-20T19:07:46.508Z,17.82
2023-05-20T19:12:57.991Z,17.61
2023-05-20T19:18:09.294Z,17.35
2023-05-20T19:20:51.480Z,17.45
2023-05-20T19:25:59.922Z,17.53
2023-05-20T19:31:31.167Z,17.48
2023-05-20T19:33:58.131Z,17.46
2023-05-20T19:36:30.123Z,17.34
2023-05-20T19:38:58.392Z,17.26
2023-05-20T19:41:25.258Z,17.33
2023-05-20T19:43:53.487Z,17.31
2023-05-20T19:46:25.077Z,17.30
2023-05-20T19:49:02.557Z,17.26
2023-05-20T19:51:36.425Z,17.21
2023-05-20T19:56:53.496Z,17.18
2023-05-20T19:59:23.042Z,17.18
2023-05-20T20:04:39.487Z,17.07
2023-05-20T20:07:27.031Z,17.12
2023-05-20T20:10:02.406Z,16.93
2023-05-20T20:15:17.135Z,17.07
2023-05-20T20:20:59.787Z,16.97
2023-05-20T20:23:31.137Z,16.93
2023-05-20T20:28:50.571Z,16.87
2023-05-20T20:39:41.665Z,16.80
2023-05-20T20:42:19.328Z,16.70
2023-05-20T20:45:26.491Z,16.69
2023-05-20T20:47:56.462Z,16.76
2023-05-20T20:50:26.183Z,16.75
2023-05-20T20:52:57.838Z,16.70
2023-05-20T20:58:28.390Z,16.70
2023-05-20T21:01:06.868Z,16.51
2023-05-20T21:03:40.400Z,16.68
2023-05-20T21:06:08.124Z,16.70
2023-05-20T21:08:36.638Z,16.66
2023-05-20T21:11:05.611Z,16.63
2023-05-20T21:14:09.992Z,16.57
2023-05-20T21:19:21.265Z,16.54
2023-05-20T21:22:04.198Z,16.64
2023-05-20T21:24:55.306Z,16.59
2023-05-20T21:27:21.901Z,16.54
2023-05-20T21:29:51.534Z,16.56
2023-05-20T21:32:18.408Z,16.56
2023-05-20T21:34:45.861Z,16.51
2023-05-20T21:37:12.791Z,16.45
2023-05-20T21:39:53.894Z,16.37
2023-05-20T21:42:28.997Z,16.47
2023-05-20T21:44:57.590Z,16.44
2023-05-20T21:47:26.893Z,16.46
2023-05-20T21:49:55.139Z,16.53
2023-05-20T21:55:02.424Z,16.32
2023-05-20T21:57:29.504Z,16.43
2023-05-20T21:59:56.455Z,16.42
2023-05-20T22:02:23.499Z,16.23
2023-05-20T22:04:54.258Z,16.33
2023-05-20T22:07:20.923Z,16.36
2023-05-20T22:09:49.439Z,16.34
2023-05-20T22:12:24.060Z,16.35
2023-05-20T22:14:54.154Z,16.29
2023-05-20T22:17:27.985Z,16.25
2023-05-20T22:20:00.722Z,16.23
2023-05-20T22:25:14.855Z,16.20
2023-05-20T22:27:45.788Z,16.21
2023-05-20T22:30:20.357Z,16.26
2023-05-20T22:32:49.482Z,16.14
2023-05-20T22:35:17.566Z,16.15
2023-05-20T22:38:00.220Z,15.96
2023-05-20T22:40:28.049Z,16.03
2023-05-20T22:43:00.564Z,16.08
2023-05-20T22:48:12.628Z,15.96
2023-05-20T22:53:23.228Z,15.98
2023-05-20T22:55:56.504Z,15.89
2023-05-20T22:58:41.198Z,15.93
2023-05-20T23:01:11.064Z,15.76
2023-05-20T23:03:43.384Z,15.93
2023-05-20T23:06:16.737Z,15.98
2023-05-20T23:08:51.367Z,15.93
2023-05-20T23:11:18.791Z,15.92
2023-05-20T23:13:49.492Z,15.90
2023-05-20T23:16:16.224Z,15.82
2023-05-20T23:18:47.355Z,15.78
2023-05-20T23:21:17.390Z,15.77
2023-05-20T23:23:45.103Z,15.78
2023-05-20T23:26:13.746Z,15.61
